Time;durP1;ratioP1;P1;durP2;ratioP2;P2;SDS_P1;SDS_P2;PMS_P1;PMS_P2;Temp;Humidity;BMP_temperature;BMP_pressure;BME280_temperature;BME280_humidity;BME280_pressure;Samples;Min_cycle;Max_cycle;Signal;HPM_P1;HPM_P2
2023/02/27 00:01:07;;;;;;;;;;;;;;;-142.75;100.00;79610.78;4972213;28;20298;-66
2023/02/27 00:03:32;;;;;;;;;;;;;;;-142.75;100.00;79614.72;4972400;28;20385;-67
2023/02/27 00:05:58;;;;;;;;;;;;;;;-142.75;100.00;79612.75;4972503;28;20020;-67
2023/02/27 00:08:23;;;;;;;;;;;;;;;-142.75;100.00;79602.88;4962504;28;19913;-67
2023/02/27 00:10:49;;;;;;;;;;;;;;;-142.75;100.00;79616.69;4972476;28;20060;-67
2023/02/27 00:13:14;;;;;;;;;;;;;;;-142.75;100.00;79604.88;4954921;28;19984;-67
2023/02/27 00:15:39;;;;;;;;;;;;;;;-142.75;100.00;79606.84;4972043;28;19914;-67
2023/02/27 00:18:05;;;;;;;;;;;;;;;-142.75;100.00;79608.81;4972183;28;19914;-67
2023/02/27 00:20:36;;;;;;;;;;;;;;;-142.75;100.00;79596.97;4971844;28;19914;-67
2023/02/27 00:23:01;;;;;;;;;;;;;;;-142.75;100.00;79587.13;4972315;28;19914;-67
2023/02/27 00:25:26;;;;;;;;;;;;;;;-142.75;100.00;79567.44;4971906;28;20306;-67
2023/02/27 00:27:52;;;;;;;;;;;;;;;-142.75;100.00;79563.50;4972226;28;20366;-67
2023/02/27 00:30:18;;;;;;;;;;;;;;;-142.75;100.00;79563.50;4971713;28;20004;-67
2023/02/27 00:32:43;;;;;;;;;;;;;;;-142.75;100.00;79567.44;4972074;28;19921;-67
2023/02/27 00:35:09;;;;;;;;;;;;;;;-142.75;100.00;79587.13;4972120;28;19921;-67
2023/02/27 00:37:35;;;;;;;;;;;;;;;-142.75;100.00;79591.06;4970557;28;19918;-67
2023/02/27 00:40:00;;;;;;;;;;;;;;;-142.75;100.00;79600.91;4971683;28;19921;-67
2023/02/27 00:42:27;;;;;;;;;;;;;;;-142.75;100.00;79604.88;4972126;28;20463;-67
2023/02/27 00:44:52;;;;;;;;;;;;;;;-142.75;100.00;79610.78;4971991;28;19921;-67
2023/02/27 00:47:17;;;;;;;;;;;;;;;-142.75;100.00;79600.91;4971654;28;19914;-66
2023/02/27 00:49:42;;;;;;;;;;;;;;;-142.75;100.00;79600.91;4971526;28;19914;-66
2023/02/27 00:52:08;;;;;;;;;;;;;;;-142.75;100.00;79614.72;4971899;28;19913;-66
2023/02/27 00:54:33;;;;;;;;;;;;;;;-142.75;100.00;79608.81;4971925;28;19974;-66
2023/02/27 00:56:59;;;;;;;;;;;;;;;-142.75;100.00;79596.97;4971996;28;19973;-67
2023/02/27 00:59:24;;;;;;;;;;;;;;;-142.75;100.00;79608.81;4959790;28;20383;-67
2023/02/27 01:01:49;;;;;;;;;;;;;;;-142.75;100.00;79602.88;4975382;28;19921;-66
2023/02/27 01:04:14;;;;;;;;;;;;;;;-142.75;100.00;79610.78;4975662;28;20392;-65
2023/02/27 01:06:40;;;;;;;;;;;;;;;-142.75;100.00;79602.88;4957235;28;19922;-67
2023/02/27 01:09:05;;;;;;;;;;;;;;;-142.75;100.00;79602.88;4975328;28;20366;-67
2023/02/27 01:11:30;;;;;;;;;;;;;;;-142.75;100.00;79591.06;4975288;28;19920;-67
2023/02/27 01:13:55;;;;;;;;;;;;;;;-142.75;100.00;79585.16;4974119;28;19925;-67
2023/02/27 01:16:21;;;;;;;;;;;;;;;-142.75;100.00;79585.16;4976072;28;20358;-67
2023/02/27 01:18:47;;;;;;;;;;;;;;;-142.75;100.00;79579.25;4957834;28;19914;-66
2023/02/27 01:21:12;;;;;;;;;;;;;;;-142.75;100.00;79583.19;4975151;28;20344;-68
2023/02/27 01:23:37;;;;;;;;;;;;;;;-142.75;100.00;79583.19;4975275;28;19914;-67
2023/02/27 01:26:03;;;;;;;;;;;;;;;-142.75;100.00;79595.00;4975239;28;19960;-67
2023/02/27 01:28:28;;;;;;;;;;;;;;;-142.75;100.00;79634.41;4963301;28;20048;-67
2023/02/27 01:30:53;;;;;;;;;;;;;;;-142.75;100.00;79612.75;4974890;28;19922;-67
2023/02/27 01:33:18;;;;;;;;;;;;;;;-142.75;100.00;79614.72;4974957;28;19918;-69
2023/02/27 01:35:43;;;;;;;;;;;;;;;-142.75;100.00;79606.84;4973804;28;20225;-66
2023/02/27 01:38:09;;;;;;;;;;;;;;;-142.75;100.00;79602.88;4974838;28;19914;-68
2023/02/27 01:40:36;;;;;;;;;;;;;;;-142.75;100.00;79598.94;4974677;28;19918;-67
2023/02/27 01:43:01;;;;;;;;;;;;;;;-142.75;100.00;79593.03;4974330;28;20388;-67
2023/02/27 01:45:28;;;;;;;;;;;;;;;-142.75;100.00;79600.91;4974414;28;19921;-67
2023/02/27 01:48:09;;;;;;;;;;;;;;;-142.75;100.00;79600.91;4974649;28;19914;-67
2023/02/27 01:50:36;;;;;;;;;;;;;;;-142.75;100.00;79628.50;4974313;28;19914;-67
2023/02/27 01:53:02;;;;;;;;;;;;;;;-142.75;100.00;79628.50;4974629;28;19918;-69
2023/02/27 01:55:29;;;;;;;;;;;;;;;-142.75;100.00;79632.44;4974193;28;19920;-67
2023/02/27 01:57:55;;;;;;;;;;;;;;;-142.75;100.00;79638.34;4974491;28;19918;-68
2023/02/27 02:00:20;;;;;;;;;;;;;;;-142.75;100.00;79646.22;4974218;28;19997;-67
2023/02/27 02:02:54;;;;;;;;;;;;;;;-142.75;100.00;79648.19;4974325;28;20001;-67
2023/02/27 02:05:19;;;;;;;;;;;;;;;-142.75;100.00;79638.34;4974546;28;20323;-69
2023/02/27 02:07:45;;;;;;;;;;;;;;;-142.75;100.00;79665.94;4974510;28;19942;-67
2023/02/27 02:10:12;;;;;;;;;;;;;;;-142.75;100.00;79646.22;4973911;28;20008;-67
2023/02/27 02:12:37;;;;;;;;;;;;;;;-142.75;100.00;79650.16;4973242;28;19937;-68
2023/02/27 02:15:04;;;;;;;;;;;;;;;-142.75;100.00;79646.22;4974160;28;19922;-69
2023/02/27 02:17:29;;;;;;;;;;;;;;;-142.75;100.00;79646.22;4973081;28;20350;-68
2023/02/27 02:20:19;;;;;;;;;;;;;;;-142.75;100.00;79642.28;4974262;28;19922;-67
2023/02/27 02:23:00;;;;;;;;;;;;;;;-142.75;100.00;79689.56;4974669;28;20417;-67
2023/02/27 02:25:43;;;;;;;;;;;;;;;-142.75;100.00;79705.34;4974269;28;19965;-67
2023/02/27 02:28:27;;;;;;;;;;;;;;;-142.75;100.00;79713.22;4974031;28;19922;-67
2023/02/27 02:30:52;;;;;;;;;;;;;;;-142.75;100.00;79723.06;4973774;28;19921;-67
2023/02/27 02:33:17;;;;;;;;;;;;;;;-142.75;100.00;79721.09;4973631;28;19917;-67
2023/02/27 02:36:01;;;;;;;;;;;;;;;-142.75;100.00;79738.81;4964545;28;19914;-65
2023/02/27 02:38:45;;;;;;;;;;;;;;;-142.75;100.00;79738.81;4972313;28;20008;-68
2023/02/27 02:41:13;;;;;;;;;;;;;;;-142.75;100.00;79748.66;4972610;28;19914;-67
2023/02/27 02:43:57;;;;;;;;;;;;;;;-142.75;100.00;79754.59;4972187;28;19921;-68
2023/02/27 02:46:46;;;;;;;;;;;;;;;-142.75;100.00;79750.66;4973765;28;19914;-67
2023/02/27 02:49:14;;;;;;;;;;;;;;;-142.75;100.00;79768.38;4973566;28;20388;-67
2023/02/27 02:51:39;;;;;;;;;;;;;;;-142.75;100.00;79784.13;4972922;28;20002;-67
2023/02/27 02:54:10;;;;;;;;;;;;;;;-142.75;100.00;79792.00;4970960;28;19930;-67
2023/02/27 02:56:42;;;;;;;;;;;;;;;-142.75;100.00;79788.06;4973496;28;20068;-67
2023/02/27 02:59:10;;;;;;;;;;;;;;;-142.75;100.00;79784.13;4973084;28;20562;-66
2023/02/27 03:01:42;;;;;;;;;;;;;;;-142.75;100.00;79793.97;4978634;28;19918;-67
2023/02/27 03:04:26;;;;;;;;;;;;;;;-142.75;100.00;79811.72;4973483;28;19921;-67
2023/02/27 03:06:56;;;;;;;;;;;;;;;-142.75;100.00;79827.47;4973469;28;20009;-67
2023/02/27 03:09:25;;;;;;;;;;;;;;;-142.75;100.00;79817.63;4973201;28;19914;-69
2023/02/27 03:11:52;;;;;;;;;;;;;;;-142.75;100.00;79817.63;4973059;28;19914;-67
2023/02/27 03:14:20;;;;;;;;;;;;;;;-142.75;100.00;79841.25;4987998;28;20283;-67
2023/02/27 03:16:47;;;;;;;;;;;;;;;-142.75;100.00;79868.84;4972089;28;19944;-66
2023/02/27 03:19:24;;;;;;;;;;;;;;;-142.75;100.00;79868.84;4972919;28;19913;-67
2023/02/27 03:21:55;;;;;;;;;;;;;;;-142.75;100.00;79839.28;4972340;28;19937;-67
2023/02/27 03:24:31;;;;;;;;;;;;;;;-142.75;100.00;79823.53;4972151;28;19967;-68
2023/02/27 03:27:00;;;;;;;;;;;;;;;-142.75;100.00;79815.66;4972454;28;20383;-66
2023/02/27 03:29:29;;;;;;;;;;;;;;;-142.75;100.00;79809.75;4972687;28;19922;-69
2023/02/27 03:32:01;;;;;;;;;;;;;;;-142.75;100.00;79821.56;4972946;28;19914;-67
2023/02/27 03:34:28;;;;;;;;;;;;;;;-142.75;100.00;79793.97;4972755;28;19924;-66
2023/02/27 03:37:14;;;;;;;;;;;;;;;-142.75;100.00;79793.97;4972869;28;19914;-69
2023/02/27 03:39:47;;;;;;;;;;;;;;;-142.75;100.00;79780.19;4958869;28;19936;-66
2023/02/27 03:42:13;;;;;;;;;;;;;;;-142.75;100.00;79774.28;4972447;28;19914;-67
2023/02/27 03:44:53;;;;;;;;;;;;;;;-142.75;100.00;79788.06;4972574;28;19921;-69
2023/02/27 03:47:18;;;;;;;;;;;;;;;-142.75;100.00;79778.22;4972757;28;19920;-68
2023/02/27 03:49:44;;;;;;;;;;;;;;;-142.75;100.00;79790.03;4972509;28;20078;-67
2023/02/27 03:52:09;;;;;;;;;;;;;;;-142.75;100.00;79776.25;4972529;28;20376;-67
2023/02/27 03:54:36;;;;;;;;;;;;;;;-142.75;100.00;79772.31;4958657;28;19988;-68
2023/02/27 03:57:02;;;;;;;;;;;;;;;-142.75;100.00;79774.28;4972474;28;20351;-67
2023/02/27 03:59:29;;;;;;;;;;;;;;;-142.75;100.00;79788.06;4972061;28;19921;-67
2023/02/27 04:01:55;;;;;;;;;;;;;;;-142.75;100.00;79801.88;4972591;28;19914;-67
2023/02/27 04:04:21;;;;;;;;;;;;;;;-142.75;100.00;79817.63;4966293;28;20012;-69
2023/02/27 04:09:45;;;;;;;;;;;;;;;-142.75;100.00;79855.06;4972250;28;19921;-67
2023/02/27 04:12:10;;;;;;;;;;;;;;;-142.75;100.00;79855.06;4971478;28;20442;-67
2023/02/27 04:14:47;;;;;;;;;;;;;;;-142.75;100.00;79862.94;4972142;28;19921;-68
2023/02/27 04:17:22;;;;;;;;;;;;;;;-142.75;100.00;79827.47;4972221;28;20288;-66
2023/02/27 04:19:58;;;;;;;;;;;;;;;-142.75;100.00;79807.78;4971725;28;20383;-66
2023/02/27 04:22:26;;;;;;;;;;;;;;;-142.75;100.00;79817.63;4972312;28;19913;-66
2023/02/27 04:24:51;;;;;;;;;;;;;;;-142.75;100.00;79809.75;4972162;28;19914;-67
2023/02/27 04:27:30;;;;;;;;;;;;;;;-142.75;100.00;79815.66;4972215;28;19914;-67
2023/02/27 04:30:02;;;;;;;;;;;;;;;-142.75;100.00;79859.00;4970561;28;19921;-67
2023/02/27 04:32:27;;;;;;;;;;;;;;;-142.75;100.00;79851.13;4973835;28;20302;-67
2023/02/27 04:34:54;;;;;;;;;;;;;;;-142.75;100.00;79851.13;4976054;28;20020;-66
2023/02/27 04:37:31;;;;;;;;;;;;;;;-142.75;100.00;79864.91;4975909;28;19996;-67
2023/02/27 04:40:05;;;;;;;;;;;;;;;-142.75;100.00;79849.16;4975301;28;19992;-67
2023/02/27 04:42:32;;;;;;;;;;;;;;;-142.75;100.00;79853.09;4975998;28;19921;-67
2023/02/27 04:44:59;;;;;;;;;;;;;;;-142.75;100.00;79862.94;4974599;28;19922;-67
2023/02/27 04:47:27;;;;;;;;;;;;;;;-142.75;100.00;79882.63;4975792;28;19968;-67
2023/02/27 04:50:03;;;;;;;;;;;;;;;-142.75;100.00;79862.94;4975394;28;19914;-67
2023/02/27 04:52:28;;;;;;;;;;;;;;;-142.75;100.00;79896.44;4975628;28;19914;-67
2023/02/27 04:55:06;;;;;;;;;;;;;;;-142.75;100.00;79888.53;4975594;28;19925;-67
2023/02/27 04:57:41;;;;;;;;;;;;;;;-142.75;100.00;79904.31;4975648;28;19914;-67
2023/02/27 05:00:08;;;;;;;;;;;;;;;-142.75;100.00;79888.53;4975228;28;20299;-67
2023/02/27 05:02:37;;;;;;;;;;;;;;;-142.75;100.00;79898.41;4975670;28;19922;-66
2023/02/27 05:05:09;;;;;;;;;;;;;;;-142.75;100.00;79898.41;4974617;28;19964;-67
2023/02/27 05:07:48;;;;;;;;;;;;;;;-142.75;100.00;79902.34;4975594;28;19925;-67
2023/02/27 05:10:20;;;;;;;;;;;;;;;-142.75;100.00;79922.03;4975103;28;19917;-67
2023/02/27 05:12:55;;;;;;;;;;;;;;;-142.75;100.00;79927.94;4975501;28;20311;-67
2023/02/27 05:15:21;;;;;;;;;;;;;;;-142.75;100.00;79918.09;4974877;28;19968;-67
2023/02/27 05:17:49;;;;;;;;;;;;;;;-142.75;100.00;79925.97;4975355;28;20000;-67
2023/02/27 05:20:14;;;;;;;;;;;;;;;-142.75;100.00;79920.06;4975075;28;19914;-67
2023/02/27 05:22:49;;;;;;;;;;;;;;;-142.75;100.00;79912.19;4975202;28;19914;-67
2023/02/27 05:25:15;;;;;;;;;;;;;;;-142.75;100.00;79910.22;4974546;28;19914;-65
2023/02/27 05:27:49;;;;;;;;;;;;;;;-142.75;100.00;79916.13;4969769;28;20386;-67
2023/02/27 05:30:14;;;;;;;;;;;;;;;-142.75;100.00;79916.13;4974861;28;19918;-66
2023/02/27 05:32:54;;;;;;;;;;;;;;;-142.75;100.00;79920.06;4975002;28;19918;-67
2023/02/27 05:35:25;;;;;;;;;;;;;;;-142.75;100.00;79920.06;4975299;28;19914;-67
2023/02/27 05:38:01;;;;;;;;;;;;;;;-142.75;100.00;79931.88;4974440;28;19922;-67
2023/02/27 05:40:43;;;;;;;;;;;;;;;-142.75;100.00;79918.09;4974761;28;19944;-67
2023/02/27 05:43:11;;;;;;;;;;;;;;;-142.75;100.00;79912.19;4973463;28;19918;-67
2023/02/27 05:45:38;;;;;;;;;;;;;;;-142.75;100.00;79922.03;4975410;28;19914;-67
2023/02/27 05:48:18;;;;;;;;;;;;;;;-142.75;100.00;79910.22;4958915;28;20406;-67
2023/02/27 05:50:44;;;;;;;;;;;;;;;-142.75;100.00;79910.22;4971465;28;19920;-66
2023/02/27 05:53:14;;;;;;;;;;;;;;;-142.75;100.00;79929.91;4974467;28;20291;-67
2023/02/27 05:55:45;;;;;;;;;;;;;;;-142.75;100.00;79922.03;4974655;28;19922;-67
2023/02/27 05:58:13;;;;;;;;;;;;;;;-142.75;100.00;79939.78;4974246;28;19918;-66
2023/02/27 06:00:50;;;;;;;;;;;;;;;-142.75;100.00;79933.84;4974226;28;19952;-67
2023/02/27 06:03:16;;;;;;;;;;;;;;;-142.75;100.00;79955.53;4974593;28;19918;-66
2023/02/27 06:05:42;;;;;;;;;;;;;;;-142.75;100.00;79945.69;4974423;28;20302;-63
2023/02/27 06:08:07;;;;;;;;;;;;;;;-142.75;100.00;79947.66;4989371;28;19913;-66
2023/02/27 06:10:33;;;;;;;;;;;;;;;-142.75;100.00;79931.88;4973789;28;20004;-66
2023/02/27 06:12:58;;;;;;;;;;;;;;;-142.75;100.00;79953.56;4974162;28;19952;-66
2023/02/27 06:15:23;;;;;;;;;;;;;;;-142.75;100.00;79947.66;4974376;28;19914;-67
2023/02/27 06:17:48;;;;;;;;;;;;;;;-142.75;100.00;79983.13;4974682;28;20360;-68
2023/02/27 06:20:14;;;;;;;;;;;;;;;-142.75;100.00;79973.25;4974242;28;19924;-62
2023/02/27 06:22:39;;;;;;;;;;;;;;;-142.75;100.00;79973.25;4973970;28;20008;-68
2023/02/27 06:25:05;;;;;;;;;;;;;;;-142.75;100.00;79979.16;4973816;28;19918;-65
2023/02/27 06:27:30;;;;;;;;;;;;;;;-142.75;100.00;79971.28;4956382;28;19968;-66
2023/02/27 06:29:56;;;;;;;;;;;;;;;-142.75;100.00;79967.34;4956248;28;19914;-67
2023/02/27 06:32:24;;;;;;;;;;;;;;;-142.75;100.00;79977.19;4973978;28;20017;-68
2023/02/27 06:34:49;;;;;;;;;;;;;;;-142.75;100.00;79979.16;4973740;28;19925;-67
2023/02/27 06:37:14;;;;;;;;;;;;;;;-142.75;100.00;79979.16;4973627;28;19917;-67
2023/02/27 06:39:39;;;;;;;;;;;;;;;-142.75;100.00;79977.19;4973263;28;19921;-67
2023/02/27 06:42:05;;;;;;;;;;;;;;;-142.75;100.00;79973.25;4973883;28;19914;-67
2023/02/27 06:44:30;;;;;;;;;;;;;;;-142.75;100.00;79951.59;4973771;28;20335;-66
2023/02/27 06:46:55;;;;;;;;;;;;;;;-142.75;100.00;79931.88;4973576;28;19918;-66
2023/02/27 06:49:20;;;;;;;;;;;;;;;-142.75;100.00;79910.22;4973556;28;19961;-67
2023/02/27 06:51:46;;;;;;;;;;;;;;;-142.75;100.00;79902.34;4973350;28;19961;-66
2023/02/27 06:54:11;;;;;;;;;;;;;;;-142.75;100.00;79890.50;4973263;28;19918;-67
2023/02/27 06:56:36;;;;;;;;;;;;;;;-142.75;100.00;79862.94;4972457;28;19918;-66
2023/02/27 06:59:02;;;;;;;;;;;;;;;-142.75;100.00;79849.16;4973245;28;19918;-67
2023/02/27 07:01:27;;;;;;;;;;;;;;;-142.75;100.00;79811.72;4972452;28;19922;-68
2023/02/27 07:03:52;;;;;;;;;;;;;;;-142.75;100.00;79801.88;4973346;28;20459;-68
2023/02/27 07:06:17;;;;;;;;;;;;;;;-142.75;100.00;79774.28;4973268;28;19985;-67
2023/02/27 07:08:42;;;;;;;;;;;;;;;-142.75;100.00;79744.72;4972604;28;20363;-67
2023/02/27 07:11:08;;;;;;;;;;;;;;;-142.75;100.00;79752.63;4970936;28;19921;-67
2023/02/27 07:13:33;;;;;;;;;;;;;;;-142.75;100.00;79728.97;4973119;28;20438;-66
2023/02/27 07:15:58;;;;;;;;;;;;;;;-142.75;100.00;79715.19;4973685;28;20352;-67
2023/02/27 07:18:24;;;;;;;;;;;;;;;-142.75;100.00;79703.38;4972820;28;19929;-66
2023/02/27 07:20:50;;;;;;;;;;;;;;;-142.75;100.00;79691.53;4972931;28;19914;-67
2023/02/27 07:23:15;;;;;;;;;;;;;;;-142.75;100.00;79667.91;4972898;28;19972;-67
2023/02/27 07:25:40;;;;;;;;;;;;;;;-142.75;100.00;79654.13;4973131;28;19944;-66
2023/02/27 07:28:05;;;;;;;;;;;;;;;-142.75;100.00;79642.28;4973319;28;19914;-67
2023/02/27 07:30:31;;;;;;;;;;;;;;;-142.75;100.00;79632.44;4972681;28;20292;-68
2023/02/27 07:32:56;;;;;;;;;;;;;;;-142.75;100.00;79595.00;4972787;28;20004;-66
2023/02/27 07:35:21;;;;;;;;;;;;;;;-142.75;100.00;79587.13;4972840;28;19921;-67
2023/02/27 07:37:47;;;;;;;;;;;;;;;-142.75;100.00;79583.19;4972620;28;19914;-67
2023/02/27 07:40:13;;;;;;;;;;;;;;;-142.75;100.00;79563.50;4972413;28;19989;-67
2023/02/27 07:42:38;;;;;;;;;;;;;;;-142.75;100.00;79575.31;4972710;28;19914;-67
2023/02/27 07:45:04;;;;;;;;;;;;;;;-142.75;100.00;79569.41;4972774;28;20129;-66
2023/02/27 07:47:29;;;;;;;;;;;;;;;-142.75;100.00;79561.53;4972464;28;20592;-67
2023/02/27 07:49:54;;;;;;;;;;;;;;;-142.75;100.00;79526.06;4971972;28;20402;-67
2023/02/27 07:52:19;;;;;;;;;;;;;;;-142.75;100.00;79512.28;4972250;28;19914;-67
2023/02/27 07:54:44;;;;;;;;;;;;;;;-142.75;100.00;79516.22;4970791;28;19918;-67
2023/02/27 07:57:10;;;;;;;;;;;;;;;-142.75;100.00;79512.28;4956427;28;20420;-67
2023/02/27 07:59:35;;;;;;;;;;;;;;;-142.75;100.00;79468.94;4971931;28;20368;-67
2023/02/27 08:02:00;;;;;;;;;;;;;;;-142.75;100.00;79449.25;4972532;28;19968;-67
2023/02/27 08:04:25;;;;;;;;;;;;;;;-142.75;100.00;79472.88;4967276;28;20005;-67
2023/02/27 08:06:51;;;;;;;;;;;;;;;-142.75;100.00;79455.16;4968429;28;20360;-68
2023/02/27 08:09:16;;;;;;;;;;;;;;;-142.75;100.00;79465.00;4966183;28;19929;-64
2023/02/27 08:11:41;;;;;;;;;;;;;;;-142.75;100.00;79409.84;4970679;28;19925;-67
2023/02/27 08:14:06;;;;;;;;;;;;;;;-142.75;100.00;79370.44;4970770;28;20009;-67
2023/02/27 08:16:32;;;;;;;;;;;;;;;-142.75;100.00;79362.56;4971277;28;19913;-67
2023/02/27 08:18:57;;;;;;;;;;;;;;;-142.75;100.00;79342.88;4969872;28;19914;-67
2023/02/27 08:21:22;;;;;;;;;;;;;;;-142.75;100.00;79338.94;4970467;28;19941;-67
2023/02/27 08:23:47;;;;;;;;;;;;;;;-142.75;100.00;79311.34;4971853;28;19914;-67
2023/02/27 08:26:13;;;;;;;;;;;;;;;-142.75;100.00;79279.84;4953721;28;20505;-66
2023/02/27 08:28:38;;;;;;;;;;;;;;;-142.75;100.00;79220.75;4970671;28;19914;-67
2023/02/27 08:31:04;;;;;;;;;;;;;;;-142.75;100.00;79214.81;4980802;28;19914;-65
2023/02/27 08:33:29;;;;;;;;;;;;;;;-142.75;100.00;79183.31;4970250;28;19936;-67
2023/02/27 08:35:55;;;;;;;;;;;;;;;-142.75;99.82;79179.38;4971159;28;19925;-66
2023/02/27 08:38:21;;;;;;;;;;;;;;;-142.75;99.21;79151.78;4971066;28;19914;-66
2023/02/27 08:40:46;;;;;;;;;;;;;;;-142.75;98.60;79141.94;4970781;28;19921;-67
2023/02/27 08:43:11;;;;;;;;;;;;;;;-142.75;97.22;79112.41;4970927;28;19921;-68
2023/02/27 08:45:36;;;;;;;;;;;;;;;-142.75;92.92;79039.53;4971260;28;19929;-67
2023/02/27 08:48:02;;;;;;;;;;;;;;;-142.75;90.17;79004.06;4970246;28;19914;-66
2023/02/27 08:50:27;;;;;;;;;;;;;;;-142.75;89.89;78998.16;4967848;28;19994;-67
2023/02/27 08:52:52;;;;;;;;;;;;;;;-142.75;86.92;78958.75;4966039;28;19955;-66
2023/02/27 08:55:17;;;;;;;;;;;;;;;-142.75;86.62;78994.22;4970988;28;19968;-68
2023/02/27 08:57:43;;;;;;;;;;;;;;;-142.75;85.23;78990.28;4970581;28;20421;-64
2023/02/27 09:00:09;;;;;;;;;;;;;;;-142.75;85.44;78972.56;4966823;28;19929;-68
2023/02/27 09:02:34;;;;;;;;;;;;;;;-142.75;85.88;78968.63;4967606;28;19921;-68
2023/02/27 09:05:00;;;;;;;;;;;;;;;-142.75;86.17;78992.25;4970623;28;19937;-67
2023/02/27 09:07:25;;;;;;;;;;;;;;;-142.75;87.04;79021.78;4968908;28;19922;-67
2023/02/27 09:09:51;;;;;;;;;;;;;;;-142.75;86.87;79021.78;4957346;28;19960;-68
2023/02/27 09:12:16;;;;;;;;;;;;;;;-142.75;86.56;79041.50;4966977;28;20291;-66
2023/02/27 09:14:41;;;;;;;;;;;;;;;-142.75;84.56;78958.75;4963346;28;20403;-67
2023/02/27 09:17:06;;;;;;;;;;;;;;;-142.75;84.41;78954.81;4947065;28;19961;-68
2023/02/27 09:19:32;;;;;;;;;;;;;;;-142.75;82.34;78891.78;4971850;28;20299;-67
2023/02/27 09:21:57;;;;;;;;;;;;;;;-142.75;81.12;78870.13;4972443;28;19984;-69
2023/02/27 09:24:22;;;;;;;;;;;;;;;-142.75;80.77;78840.59;4972766;28;20607;-68
2023/02/27 09:26:48;;;;;;;;;;;;;;;-142.75;79.11;78844.53;4970923;28;19997;-68
2023/02/27 09:29:13;;;;;;;;;;;;;;;-142.75;78.29;78842.56;4971721;28;19945;-67
2023/02/27 09:31:38;;;;;;;;;;;;;;;-142.75;76.69;78801.19;4972060;28;19914;-66
2023/02/27 09:34:03;;;;;;;;;;;;;;;-142.75;77.43;78822.88;4974930;28;19918;-69
2023/02/27 09:36:29;;;;;;;;;;;;;;;-142.75;77.62;78868.16;4974898;28;19914;-68
2023/02/27 09:38:54;;;;;;;;;;;;;;;-142.75;78.38;78870.13;4973972;28;19928;-70
2023/02/27 09:41:31;;;;;;;;;;;;;;;-142.75;79.05;78858.31;4971072;28;19917;-68
2023/02/27 09:43:56;;;;;;;;;;;;;;;-142.75;77.63;78826.81;4973369;28;19914;-70
2023/02/27 09:46:24;;;;;;;;;;;;;;;-142.75;79.10;78838.63;4974760;28;19997;-69
2023/02/27 09:49:11;;;;;;;;;;;;;;;-142.75;79.04;78818.91;4974845;28;19922;-69
2023/02/27 09:51:36;;;;;;;;;;;;;;;-142.75;80.38;78958.75;4973590;28;19960;-68
2023/02/27 09:54:03;;;;;;;;;;;;;;;-142.75;80.63;78846.50;4974783;28;19953;-69
2023/02/27 09:56:34;;;;;;;;;;;;;;;-142.75;80.65;78868.16;4974216;28;20005;-68
2023/02/27 09:59:27;;;;;;;;;;;;;;;-142.75;79.85;78864.22;4971334;28;19953;-69
2023/02/27 10:02:19;;;;;;;;;;;;;;;-142.75;78.17;78820.88;4970172;28;19925;-69
2023/02/27 10:04:44;;;;;;;;;;;;;;;-142.75;79.02;78811.03;4947122;28;19917;-69
2023/02/27 10:07:12;;;;;;;;;;;;;;;-142.75;77.82;78730.28;4971211;28;20276;-69
2023/02/27 10:09:46;;;;;;;;;;;;;;;-142.75;76.03;78759.84;4972437;28;19930;-68
2023/02/27 10:12:17;;;;;;;;;;;;;;;-142.75;76.12;78720.44;4972987;28;20317;-68
2023/02/27 10:14:46;;;;;;;;;;;;;;;-142.75;74.96;78714.53;4972869;28;19940;-68
2023/02/27 10:17:14;;;;;;;;;;;;;;;-142.75;74.33;78696.81;4972049;28;19922;-69
2023/02/27 10:19:42;;;;;;;;;;;;;;;-142.75;74.69;78683.03;4971930;28;19914;-68
2023/02/27 10:22:13;;;;;;;;;;;;;;;-142.75;72.95;78659.38;4958516;28;20344;-68
2023/02/27 10:24:41;;;;;;;;;;;;;;;-142.75;74.69;78655.44;4974010;28;19914;-69
2023/02/27 10:27:12;;;;;;;;;;;;;;;-142.75;72.02;78696.81;4973470;28;19914;-69
2023/02/27 10:29:41;;;;;;;;;;;;;;;-142.75;75.06;78785.44;4980286;28;19913;-66
2023/02/27 10:32:13;;;;;;;;;;;;;;;-142.75;76.81;78791.34;4971856;28;20414;-68
2023/02/27 10:34:40;;;;;;;;;;;;;;;-142.75;72.71;78665.28;4973213;28;19922;-68
2023/02/27 10:37:06;;;;;;;;;;;;;;;-142.75;71.66;78641.66;4973360;28;19925;-70
2023/02/27 10:39:38;;;;;;;;;;;;;;;-142.75;71.46;78696.81;4952025;28;20013;-68
2023/02/27 10:42:05;;;;;;;;;;;;;;;-142.75;71.56;78629.84;4959624;28;19984;-69
2023/02/27 10:44:32;;;;;;;;;;;;;;;-142.75;72.03;78720.44;4969447;28;19957;-66
2023/02/27 10:46:57;;;;;;;;;;;;;;;-142.75;70.72;78602.28;4973817;28;19913;-68
2023/02/27 10:49:22;;;;;;;;;;;;;;;-142.75;65.86;78606.22;4972997;28;20001;-68
2023/02/27 10:52:17;;;;;;;;;;;;;;;-142.75;62.98;78677.13;4972252;28;19936;-68
2023/02/27 10:54:42;;;;;;;;;;;;;;;-142.75;64.86;78698.78;4960162;28;19953;-67
2023/02/27 10:57:16;;;;;;;;;;;;;;;-142.75;65.58;78633.78;4973593;28;20061;-69
2023/02/27 10:59:48;;;;;;;;;;;;;;;-142.75;63.39;78543.19;4973238;28;19968;-68
2023/02/27 11:02:16;;;;;;;;;;;;;;;-142.75;59.09;78574.69;4973410;28;19913;-68
2023/02/27 11:04:46;;;;;;;;;;;;;;;-142.75;59.88;78582.59;4973452;28;19922;-69
2023/02/27 11:07:14;;;;;;;;;;;;;;;-142.75;60.38;78547.13;4972920;28;19914;-69
2023/02/27 11:09:40;;;;;;;;;;;;;;;-142.75;62.05;78637.72;4970047;28;19969;-69
2023/02/27 11:12:09;;;;;;;;;;;;;;;-142.75;60.22;78549.09;4971525;28;19917;-68
2023/02/27 11:14:34;;;;;;;;;;;;;;;-142.75;61.00;78452.59;4963087;28;19918;-68
2023/02/27 11:17:01;;;;;;;;;;;;;;;-142.75;59.44;78476.22;4953706;28;19980;-68
2023/02/27 11:19:32;;;;;;;;;;;;;;;-142.75;58.64;78436.84;4960567;28;20399;-67
2023/02/27 11:22:00;;;;;;;;;;;;;;;-142.75;55.48;78314.75;4959766;28;19914;-68
2023/02/27 11:24:26;;;;;;;;;;;;;;;-142.75;52.47;78316.72;4969714;28;19918;-68
2023/02/27 11:26:56;;;;;;;;;;;;;;;-142.75;50.46;78346.25;4971052;28;19984;-69
2023/02/27 11:29:21;;;;;;;;;;;;;;;-142.75;49.91;78289.13;4958802;28;19914;-67
2023/02/27 11:31:46;;;;;;;;;;;;;;;-142.75;50.10;78362.00;4965381;28;19914;-68
2023/02/27 11:34:31;;;;;;;;;;;;;;;-142.75;51.05;78302.94;4969355;28;19924;-68
2023/02/27 11:36:59;;;;;;;;;;;;;;;-142.75;50.08;78316.72;4971558;28;19920;-68
2023/02/27 11:39:30;;;;;;;;;;;;;;;-142.75;48.81;78306.88;4972660;28;19917;-67
2023/02/27 11:41:56;;;;;;;;;;;;;;;-142.75;47.97;78318.69;4970111;28;19924;-67
2023/02/27 11:44:24;;;;;;;;;;;;;;;-142.75;48.85;78342.31;4972753;28;19914;-67
2023/02/27 11:46:51;;;;;;;;;;;;;;;-142.75;48.47;78334.44;4972281;28;19953;-66
2023/02/27 11:49:26;;;;;;;;;;;;;;;-142.75;48.68;78300.97;4972396;28;19914;-66
2023/02/27 11:51:57;;;;;;;;;;;;;;;-142.75;49.45;78346.25;4970608;28;20012;-67
2023/02/27 11:54:41;;;;;;;;;;;;;;;-142.75;49.15;78440.78;4971871;28;20203;-67
2023/02/27 11:57:06;;;;;;;;;;;;;;;-142.75;48.61;78387.59;4968137;28;19921;-66
2023/02/27 11:59:31;;;;;;;;;;;;;;;-142.75;49.61;78409.28;4971023;28;19914;-65
2023/02/27 12:02:10;;;;;;;;;;;;;;;-142.75;48.51;78462.44;4972314;28;20299;-68
2023/02/27 12:04:35;;;;;;;;;;;;;;;-142.75;49.04;78338.38;4972063;28;19922;-67
2023/02/27 12:07:04;;;;;;;;;;;;;;;-142.75;47.04;78377.75;4971631;28;20314;-67
2023/02/27 12:09:37;;;;;;;;;;;;;;;-142.75;46.48;78411.25;4971873;28;19954;-66
2023/02/27 12:12:06;;;;;;;;;;;;;;;-142.75;52.50;78560.91;4969595;28;20662;-66
2023/02/27 12:14:50;;;;;;;;;;;;;;;-142.75;58.25;78596.38;4972076;28;19924;-67
2023/02/27 12:17:20;;;;;;;;;;;;;;;-142.75;61.99;78724.38;4971451;28;19918;-67
2023/02/27 12:19:48;;;;;;;;;;;;;;;-142.75;63.88;78775.59;4971121;28;19918;-67
2023/02/27 12:22:19;;;;;;;;;;;;;;;-142.75;66.01;78883.91;4972090;28;19969;-67
2023/02/27 12:24:54;;;;;;;;;;;;;;;-142.75;69.60;79006.03;4971479;28;20473;-65
2023/02/27 12:27:25;;;;;;;;;;;;;;;-142.75;72.22;78966.66;4971800;28;19920;-67
2023/02/27 12:29:53;;;;;;;;;;;;;;;-142.75;70.66;78976.50;4971501;28;20410;-65